Latest Weather Observations for Point Avoid

IDS60801

Issued at 3:21 pm CST Wednesday 20 June 2018 (issued every 10 minutes, with the page automatically refreshed every 10 minutes)

About weather observations | Map of weather stations | Latest weather observations for SA | Other Formats
Station Details ID: 018230 Name: POINT AVOID Lat: -34.67 Lon: 135.34 Height: 35.0 m
Data from the previous 72 hours. | See also: Recent months at Point Avoid
Date/Time
CST
Temp
°C
App
Temp
°C
Dew
Point
°C
Rel
Hum
%
Delta-T
°C
Wind Press
QNH
hPa
Press
MSL
hPa
Rain since
9am
mm
Dir  Spd
km/h
Gust
km/h
Spd
kts
Gust
kts
20/03:00pm 15.1 11.3 11.3 78 2.0 SSE 22 30 12 16 1023.7 1023.7 0.2
20/02:30pm 14.6 10.6 10.6 77 2.1 SSE 22 30 12 16 1023.5 1023.5 0.2
20/02:00pm 14.1 10.1 10.5 79 1.9 SSE 22 33 12 18 1023.6 1023.6 0.2
20/01:30pm 15.5 12.1 11.3 76 2.2 SSE 20 28 11 15 1023.7 1023.7 0.2
20/01:00pm 15.3 10.6 10.7 74 2.4 S 26 33 14 18 1023.6 1023.6 0.2
20/12:30pm 14.7 10.9 11.3 80 1.8 SSE 22 28 12 15 1023.7 1023.7 0.2
20/12:00pm 14.7 10.6 11.3 80 1.8 SSE 24 33 13 18 1023.7 1023.7 0.2
20/11:30am 14.3 9.1 10.3 77 2.1 S 28 37 15 20 1023.8 1023.8 0.2
20/11:00am 13.6 7.3 9.6 77 2.1 S 33 44 18 24 1023.9 1023.9 0.2
20/10:30am 13.8 7.9 11.3 85 1.3 S 33 44 18 24 1023.8 1023.8 0.2
20/10:00am 14.0 8.7 11.2 83 1.5 SSW 30 41 16 22 1023.6 1023.6 0.2
20/09:30am 13.5 7.9 12.1 91 0.8 SSW 33 44 18 24 1023.3 1023.3 0.2
20/09:00am 13.6 8.8 11.5 87 1.1 SSW 28 39 15 21 1023.1 1023.1 0.4
20/08:30am 13.3 9.7 11.9 91 0.7 SSW 22 35 12 19 1022.6 1022.6 0.4
20/08:00am 13.3 9.5 12.4 94 0.5 SW 24 33 13 18 1022.0 1022.0 0.4
20/07:30am 12.2 9.3 12.2 100 0.0 NW 19 33 10 18 1021.5 1021.5 0.4
20/07:00am 9.9 5.3 9.6 98 0.2 N 24 32 13 17 1021.5 1021.5 0.4
20/06:30am 9.3 4.6 7.9 91 0.7 N 22 32 12 17 1021.5 1021.5 0.4
20/06:00am 9.6 5.4 7.5 87 1.0 N 19 26 10 14 1021.0 1021.0 0.2
20/05:30am 9.2 5.3 7.0 86 1.0 N 17 24 9 13 1020.9 1020.9 0.2
20/05:00am 9.0 5.0 6.8 86 1.0 NNE 17 24 9 13 1021.0 1021.0 0.2
20/04:30am 9.1 5.1 6.7 85 1.1 N 17 22 9 12 1021.1 1021.1 0.2
20/04:00am 9.1 4.7 6.5 84 1.2 N 19 24 10 13 1021.2 1021.2 0.2
20/03:30am 9.1 5.2 6.9 86 1.0 N 17 24 9 13 1021.3 1021.3 0.2
20/03:00am 9.2 5.2 6.6 84 1.2 N 17 24 9 13 1020.8 1020.8 0.0
20/02:30am 10.1 5.7 6.4 78 1.7 N 19 28 10 15 1020.8 1020.8 0.0
20/02:00am 10.3 6.9 5.9 74 2.0 N 13 19 7 10 1020.9 1020.9 0.0
20/01:30am 10.2 6.0 5.6 73 2.1 N 17 28 9 15 1021.1 1021.1 0.0
20/01:00am 10.6 6.0 5.8 72 2.2 N 19 26 10 14 1021.2 1021.2 0.0
20/12:30am 10.7 5.9 5.5 70 2.4 N 20 28 11 15 1021.5 1021.5 0.0
20/12:00am 10.7 5.9 5.5 70 2.4 N 20 28 11 15 1021.8 1021.8 0.0
 
Date/Time
CST
Temp
°C
App
Temp
°C
Dew
Point
°C
Rel
Hum
%
Delta-T
°C
Wind Press
QNH
hPa
Press
MSL
hPa
Rain since
9am
mm
Dir  Spd
km/h
Gust
km/h
Spd
kts
Gust
kts
19/11:30pm 10.7 5.4 5.0 68 2.6 N 22 30 12 16 1021.8 1021.8 0.0
19/11:00pm 10.7 6.3 4.8 67 2.7 N 17 22 9 12 1021.6 1021.6 0.0
19/10:30pm 10.9 4.8 5.0 67 2.7 N 26 35 14 19 1021.7 1021.7 0.0
19/10:00pm 10.7 5.3 4.6 66 2.7 NNE 22 30 12 16 1021.4 1021.4 0.0
19/09:30pm 11.2 5.5 5.1 66 2.8 N 24 33 13 18 1021.6 1021.6 0.0
19/09:00pm 11.4 5.0 5.1 65 2.9 N 28 37 15 20 1021.7 1021.7 0.0
19/08:30pm 11.0 6.4 5.5 69 2.5 N 19 26 10 14 1021.3 1021.3 0.0
19/08:00pm 11.1 6.9 5.6 69 2.5 N 17 24 9 13 1021.4 1021.4 0.0
19/07:30pm 11.7 7.6 6.4 70 2.5 N 17 22 9 12 1021.2 1021.2 0.0
19/07:00pm 11.9 7.8 6.4 69 2.6 N 17 28 9 15 1021.2 1021.2 0.0
19/06:30pm 12.9 7.9 6.5 65 3.0 NNW 22 32 12 17 1021.1 1021.1 0.0
19/06:00pm 13.0 7.5 5.9 62 3.3 NNW 24 37 13 20 1020.9 1020.9 0.0
19/05:30pm 13.0 8.0 6.6 65 3.1 NNW 22 32 12 17 1020.5 1020.5 0.0
19/05:00pm 13.1 8.5 6.7 65 3.1 NNW 20 32 11 17 1020.7 1020.7 0.0
19/04:30pm 13.3 7.6 6.6 64 3.2 NNW 26 35 14 19 1020.5 1020.5 0.0
19/04:00pm 13.2 7.9 7.0 66 3.0 NNW 24 33 13 18 1020.4 1020.4 0.0
19/03:30pm 13.1 7.4 6.7 65 3.1 N 26 35 14 19 1020.6 1020.6 0.0
19/03:00pm 12.9 7.3 7.1 68 2.8 NNW 26 37 14 20 1020.7 1020.7 0.0
19/02:30pm 12.9 7.2 6.7 66 3.0 NNW 26 39 14 21 1021.0 1021.0 0.0
19/02:00pm 12.8 7.5 7.0 68 2.8 NNW 24 35 13 19 1021.2 1021.2 0.0
19/01:30pm 12.7 7.1 7.2 69 2.7 NNW 26 39 14 21 1021.6 1021.6 0.0
19/01:00pm 12.3 5.8 6.6 68 2.7 NNW 30 41 16 22 1022.1 1022.1 0.0
19/12:30pm 11.9 5.1 6.8 71 2.4 N 32 41 17 22 1022.2 1022.2 0.0
19/12:00pm 11.6 5.2 6.9 73 2.2 N 30 41 16 22 1022.7 1022.7 0.0
19/11:30am 11.3 4.3 6.2 71 2.4 N 32 44 17 24 1023.2 1023.2 0.0
19/11:00am 10.5 4.6 5.9 73 2.1 N 26 35 14 19 1023.4 1023.4 0.0
19/10:30am 9.9 2.8 5.3 73 2.1 N 32 41 17 22 1023.6 1023.6 0.0
19/10:00am 9.2 2.3 4.6 73 2.0 N 30 41 16 22 1024.0 1024.0 0.0
19/09:30am 9.2 2.3 4.6 73 2.0 N 30 41 16 22 1023.9 1023.9 0.0
19/09:00am 9.1 1.8 4.5 73 2.0 N 32 43 17 23 1023.9 1023.9 0.0
19/08:30am 8.4 1.8 4.0 74 1.9 N 28 37 15 20 1023.6 1023.6 0.0
19/08:00am 8.2 2.0 4.2 76 1.7 N 26 37 14 20 1023.4 1023.4 0.0
19/07:30am 8.0 1.8 4.4 78 1.6 N 26 35 14 19 1023.5 1023.5 0.0
19/07:00am 8.0 2.7 4.8 80 1.4 N 22 35 12 19 1023.6 1023.6 0.0
19/06:30am 8.0 2.3 4.8 80 1.4 N 24 33 13 18 1023.3 1023.3 0.0
19/06:00am 8.1 2.7 4.7 79 1.5 NNE 22 32 12 17 1023.4 1023.4 0.0
19/05:30am 8.1 3.1 4.7 79 1.5 N 20 33 11 18 1023.5 1023.5 0.0
19/05:00am 8.0 2.7 4.8 80 1.4 NNE 22 30 12 16 1024.0 1024.0 0.0
19/04:30am 8.2 2.9 4.8 79 1.5 NNE 22 30 12 16 1023.9 1023.9 0.0
19/04:00am 8.6 2.5 4.8 77 1.7 N 26 39 14 21 1024.0 1024.0 0.0
19/03:30am 8.3 2.6 4.9 79 1.5 NNE 24 35 13 19 1024.2 1024.2 0.0
19/03:00am 8.1 3.2 5.2 82 1.3 NNE 20 30 11 16 1024.7 1024.7 0.0
19/02:30am 8.0 3.3 5.1 82 1.3 NNE 19 26 10 14 1025.7 1025.7 0.0
19/02:00am 7.7 3.8 5.3 85 1.1 NNE 15 19 8 10 1025.9 1025.9 0.0
19/01:30am 7.8 3.5 5.3 84 1.1 NNE 17 22 9 12 1025.9 1025.9 0.0
19/01:00am 7.5 3.9 5.0 84 1.1 NNE 13 17 7 9 1026.1 1026.1 0.0
19/12:30am 7.9 3.6 5.4 84 1.1 NNE 17 24 9 13 1026.3 1026.3 0.0
19/12:00am 8.0 3.7 5.3 83 1.2 NE 17 22 9 12 1026.5 1026.5 0.0
 
Date/Time
CST
Temp
°C
App
Temp
°C
Dew
Point
°C
Rel
Hum
%
Delta-T
°C
Wind Press
QNH
hPa
Press
MSL
hPa
Rain since
9am
mm
Dir  Spd
km/h
Gust
km/h
Spd
kts
Gust
kts
18/11:30pm 8.3 3.7 5.4 82 1.3 NNE 19 24 10 13 1026.3 1026.3 0.0
18/11:00pm 8.7 3.9 5.4 80 1.5 NNE 20 33 11 18 1025.9 1025.9 0.0
18/10:30pm 8.7 3.6 5.8 82 1.3 NNE 22 33 12 18 1025.2 1025.2 0.0
18/10:00pm 7.7 3.9 5.7 87 0.9 NE 15 22 8 12 1026.8 1026.8 0.0
18/09:30pm 7.1 3.6 5.3 88 0.8 NE 13 19 7 10 1027.3 1027.3 0.0
18/09:00pm 6.9 3.2 4.7 86 1.0 ENE 13 17 7 9 1027.3 1027.3 0.0
18/08:30pm 7.7 4.2 5.3 85 1.1 NE 13 17 7 9 1027.5 1027.5 0.0
18/08:00pm 8.0 4.5 5.3 83 1.2 NE 13 17 7 9 1027.4 1027.4 0.0
18/07:30pm 8.0 4.4 4.9 81 1.4 NE 13 17 7 9 1026.9 1026.9 0.0
18/07:00pm 8.7 4.7 5.1 78 1.6 ENE 15 20 8 11 1026.2 1026.2 0.0
18/06:30pm 8.8 5.1 4.6 75 1.8 ENE 13 15 7 8 1025.9 1025.9 0.0
18/06:00pm 9.6 6.8 5.0 73 2.1 ENE 9 9 5 5 1026.6 1026.6 0.0
18/05:30pm 10.7 7.9 5.0 68 2.6 NE 9 13 5 7 1026.2 1026.2 0.0
18/05:00pm 12.0 8.8 5.2 63 3.1 NNE 11 15 6 8 1027.1 1027.1 0.0
18/04:30pm 12.3 9.1 5.2 62 3.3 N 11 15 6 8 1027.3 1027.3 0.0
18/04:00pm 12.3 9.1 5.2 62 3.3 N 11 13 6 7 1027.6 1027.6 0.0
18/03:30pm 12.8 10.7 5.7 62 3.3 NNE 6 9 3 5 1027.7 1027.7 0.0
18/03:00pm 12.4 9.6 5.1 61 3.3 NNE 9 13 5 7 1028.0 1028.0 0.0
18/02:30pm 12.7 10.4 5.6 62 3.3 N 7 13 4 7 1028.2 1028.2 0.0
18/02:00pm 12.4 9.2 5.1 61 3.4 NNE 11 17 6 9 1028.7 1028.7 0.0
18/01:30pm 12.4 9.9 4.9 60 3.4 N 7 17 4 9 1029.1 1029.1 0.0
18/01:00pm 12.4 9.2 5.1 61 3.4 N 11 15 6 8 1029.4 1029.4 0.0
18/12:30pm 12.3 8.7 5.2 62 3.3 N 13 22 7 12 1029.8 1029.8 0.0
18/12:00pm 12.3 8.8 5.5 63 3.1 N 13 20 7 11 1030.2 1030.2 0.0
18/11:30am 12.4 8.9 5.3 62 3.3 N 13 20 7 11 1030.5 1030.5 0.0
18/11:00am 12.5 9.7 5.2 61 3.4 N 9 13 5 7 1030.8 1030.8 0.0
18/10:30am 11.8 9.2 6.1 68 2.7 N 9 15 5 8 1031.0 1031.0 0.0
18/10:00am 11.6 9.3 5.5 66 2.8 NE 7 11 4 6 1030.8 1030.8 0.0
18/09:30am 10.9 8.6 5.0 67 2.7 N 6 9 3 5 1030.9 1030.9 0.0
18/09:00am 10.1 7.9 5.5 73 2.1 N 6 13 3 7 1030.9 1030.9 0.2
18/08:30am 8.3 6.0 5.6 83 1.2 NE 7 9 4 5 1031.1 1031.1 0.2
18/08:00am 7.7 4.0 4.5 80 1.4 ENE 13 15 7 8 1030.8 1030.8 0.2
18/07:30am 7.9 4.9 6.2 89 0.8 NE 11 13 6 7 1030.6 1030.6 0.2
18/07:00am 7.8 5.4 6.9 94 0.4 NE 9 13 5 7 1030.6 1030.6 0.2
18/06:30am 8.2 5.5 7.3 94 0.4 NE 11 13 6 7 1030.5 1030.5 0.2
18/06:00am 8.8 6.2 7.6 92 0.6 NE 11 15 6 8 1030.5 1030.5 0.2
18/05:30am 8.4 6.6 7.8 96 0.3 NE 7 11 4 6 1030.1 1030.1 0.2
18/05:00am 8.6 7.0 7.8 95 0.4 NE 6 7 3 4 1030.0 1030.0 0.2
18/04:30am 8.3 6.3 7.2 93 0.5 NE 7 15 4 8 1029.9 1029.9 0.2
18/04:00am 7.9 5.8 6.8 93 0.5 NE 7 9 4 5 1029.6 1029.6 0.2
18/03:30am 7.2 4.2 6.0 92 0.5 E 11 11 6 6 1029.7 1029.7 0.2
18/03:00am 7.7 5.5 6.3 91 0.6 E 7 11 4 6 1029.7 1029.7 0.2
18/02:30am 8.9 7.3 7.8 93 0.5 E 6 9 3 5 1030.1 1030.1 0.0
18/02:00am 8.5 6.2 7.3 92 0.6 ENE 9 13 5 7 1030.3 1030.3 0.0
18/01:30am 9.5 7.6 7.6 88 0.9 ENE 7 11 4 6 1030.2 1030.2 0.0
18/01:00am 9.4 7.7 7.5 88 0.9 NNE 6 7 3 4 1030.2 1030.2 0.0
18/12:30am 9.4 7.4 7.2 86 1.0 NE 7 9 4 5 1030.5 1030.5 0.0
18/12:00am 10.0 7.6 7.1 82 1.4 E 9 15 5 8 1030.4 1030.4 0.0
 
Date/Time
CST
Temp
°C
App
Temp
°C
Dew
Point
°C
Rel
Hum
%
Delta-T
°C
Wind Press
QNH
hPa
Press
MSL
hPa
Rain since
9am
mm
Dir  Spd
km/h
Gust
km/h
Spd
kts
Gust
kts
17/11:30pm 9.9 8.3 7.8 87 1.0 ENE 6 9 3 5 1030.5 1030.5 0.0
17/11:00pm 9.7 8.2 8.3 91 0.7 ENE 6 7 3 4 1030.7 1030.7 0.0
17/10:30pm 10.2 7.4 8.6 90 0.8 SE 13 20 7 11 1030.7 1030.7 0.0
17/10:00pm 10.5 6.8 7.9 84 1.3 ESE 17 30 9 16 1030.8 1030.8 0.0
17/09:30pm 10.3 7.5 8.6 89 0.8 S 13 19 7 10 1030.7 1030.7 0.0
17/09:00pm 10.2 6.6 8.5 89 0.8 SE 17 24 9 13 1030.8 1030.8 0.0
17/08:30pm 10.6 7.0 6.9 78 1.7 S 15 22 8 12 1030.7 1030.7 0.0
17/08:00pm 11.3 8.3 7.8 79 1.7 S 13 17 7 9 1030.5 1030.5 0.0
17/07:30pm 11.0 7.2 7.7 80 1.6 SSE 17 24 9 13 1030.5 1030.5 0.0
17/07:00pm 11.2 7.3 7.1 76 2.0 S 17 22 9 12 1030.4 1030.4 0.0
17/06:30pm 11.4 7.5 6.9 74 2.1 SE 17 30 9 16 1030.2 1030.2 0.0
17/06:00pm 11.6 7.0 6.7 72 2.3 S 20 28 11 15 1030.1 1030.1 0.0
17/05:30pm 12.1 8.1 4.8 61 3.3 S 15 24 8 13 1030.0 1030.0 0.0
17/05:00pm 12.4 7.5 5.1 61 3.4 S 20 28 11 15 1029.9 1029.9 0.0
17/04:30pm 12.1 8.1 6.6 69 2.6 S 17 22 9 12 1029.8 1029.8 0.0
17/04:00pm 12.3 8.6 7.8 74 2.2 S 17 26 9 14 1029.8 1029.8 0.0
17/03:30pm 13.5 8.7 7.5 67 2.9 S 22 32 12 17 1029.7 1029.7 0.0

Other Formats:

Comma delimited format used in spreadsheet applications
http://www.bom.gov.au/fwo/IDS60801/IDS60801.95649.axf

JavaScript Object Notation format (JSON) in row-major order
http://www.bom.gov.au/fwo/IDS60801/IDS60801.95649.json